sensor_id;sensor_type;location;lat;lon;timestamp;P1;durP1;ratioP1;P2;durP2;ratioP2
81150;SDS011;70629;-26.026;27.976;2023-11-21T00:00:13;2.83;;;1.38;;
81150;SDS011;70629;-26.026;27.976;2023-11-21T00:00:54;2.38;;;1.10;;
81150;SDS011;70629;-26.026;27.976;2023-11-21T00:01:34;3.10;;;1.48;;
81150;SDS011;70629;-26.026;27.976;2023-11-21T00:02:13;3.70;;;1.30;;
81150;SDS011;70629;-26.026;27.976;2023-11-21T00:02:53;3.47;;;1.73;;
81150;SDS011;70629;-26.026;27.976;2023-11-21T00:03:34;3.88;;;1.30;;
81150;SDS011;70629;-26.026;27.976;2023-11-21T00:04:14;2.72;;;1.23;;
81150;SDS011;70629;-26.026;27.976;2023-11-21T00:04:54;2.72;;;1.20;;
81150;SDS011;70629;-26.026;27.976;2023-11-21T00:05:34;2.78;;;1.38;;
81150;SDS011;70629;-26.026;27.976;2023-11-21T00:06:14;3.38;;;1.85;;
81150;SDS011;70629;-26.026;27.976;2023-11-21T00:06:54;2.55;;;1.02;;
81150;SDS011;70629;-26.026;27.976;2023-11-21T00:07:33;3.78;;;1.38;;
81150;SDS011;70629;-26.026;27.976;2023-11-21T00:08:13;3.67;;;1.40;;
81150;SDS011;70629;-26.026;27.976;2023-11-21T00:08:54;3.30;;;1.63;;
81150;SDS011;70629;-26.026;27.976;2023-11-21T00:09:33;3.80;;;1.50;;
81150;SDS011;70629;-26.026;27.976;2023-11-21T00:10:15;4.20;;;1.20;;
81150;SDS011;70629;-26.026;27.976;2023-11-21T00:10:55;3.45;;;1.40;;
81150;SDS011;70629;-26.026;27.976;2023-11-21T00:11:35;2.95;;;1.20;;
81150;SDS011;70629;-26.026;27.976;2023-11-21T00:12:16;2.67;;;0.95;;
81150;SDS011;70629;-26.026;27.976;2023-11-21T00:12:56;3.90;;;1.38;;
81150;SDS011;70629;-26.026;27.976;2023-11-21T00:13:36;2.92;;;1.35;;
81150;SDS011;70629;-26.026;27.976;2023-11-21T00:14:17;3.15;;;1.30;;
81150;SDS011;70629;-26.026;27.976;2023-11-21T00:14:57;2.13;;;1.20;;
81150;SDS011;70629;-26.026;27.976;2023-11-21T00:15:36;4.78;;;1.40;;
81150;SDS011;70629;-26.026;27.976;2023-11-21T00:16:16;4.35;;;1.35;;
81150;SDS011;70629;-26.026;27.976;2023-11-21T00:16:57;3.25;;;1.20;;
81150;SDS011;70629;-26.026;27.976;2023-11-21T00:17:38;3.20;;;1.00;;
81150;SDS011;70629;-26.026;27.976;2023-11-21T00:18:18;4.28;;;1.20;;
81150;SDS011;70629;-26.026;27.976;2023-11-21T00:18:58;4.05;;;1.40;;
81150;SDS011;70629;-26.026;27.976;2023-11-21T00:19:39;4.35;;;0.95;;
81150;SDS011;70629;-26.026;27.976;2023-11-21T00:20:19;1.52;;;0.70;;
81150;SDS011;70629;-26.026;27.976;2023-11-21T00:20:59;3.63;;;0.90;;
81150;SDS011;70629;-26.026;27.976;2023-11-21T00:21:39;2.90;;;1.10;;
81150;SDS011;70629;-26.026;27.976;2023-11-21T00:22:19;3.83;;;0.95;;
81150;SDS011;70629;-26.026;27.976;2023-11-21T00:22:59;2.75;;;0.98;;
81150;SDS011;70629;-26.026;27.976;2023-11-21T00:23:41;2.53;;;1.00;;
81150;SDS011;70629;-26.026;27.976;2023-11-21T00:24:20;3.30;;;1.10;;
81150;SDS011;70629;-26.026;27.976;2023-11-21T00:25:01;3.22;;;1.10;;
81150;SDS011;70629;-26.026;27.976;2023-11-21T00:25:42;3.22;;;1.50;;
81150;SDS011;70629;-26.026;27.976;2023-11-21T00:26:22;4.72;;;1.20;;
81150;SDS011;70629;-26.026;27.976;2023-11-21T00:27:11;3.33;;;1.15;;
81150;SDS011;70629;-26.026;27.976;2023-11-21T00:27:51;2.47;;;0.90;;
81150;SDS011;70629;-26.026;27.976;2023-11-21T00:28:32;2.72;;;1.08;;
81150;SDS011;70629;-26.026;27.976;2023-11-21T00:29:12;2.65;;;1.10;;
81150;SDS011;70629;-26.026;27.976;2023-11-21T00:29:52;4.25;;;1.48;;
81150;SDS011;70629;-26.026;27.976;2023-11-21T00:30:32;3.10;;;1.00;;
81150;SDS011;70629;-26.026;27.976;2023-11-21T00:31:12;2.15;;;0.90;;
81150;SDS011;70629;-26.026;27.976;2023-11-21T00:31:52;3.53;;;1.05;;
81150;SDS011;70629;-26.026;27.976;2023-11-21T00:32:32;2.45;;;1.10;;
81150;SDS011;70629;-26.026;27.976;2023-11-21T00:33:13;3.72;;;0.98;;
81150;SDS011;70629;-26.026;27.976;2023-11-21T00:33:52;3.53;;;0.77;;
81150;SDS011;70629;-26.026;27.976;2023-11-21T00:34:34;3.65;;;1.10;;
81150;SDS011;70629;-26.026;27.976;2023-11-21T00:35:14;2.25;;;0.90;;
81150;SDS011;70629;-26.026;27.976;2023-11-21T00:35:55;3.90;;;1.35;;
81150;SDS011;70629;-26.026;27.976;2023-11-21T00:36:35;2.13;;;1.08;;
81150;SDS011;70629;-26.026;27.976;2023-11-21T00:37:15;4.25;;;1.30;;
81150;SDS011;70629;-26.026;27.976;2023-11-21T00:37:55;5.53;;;1.90;;
81150;SDS011;70629;-26.026;27.976;2023-11-21T00:38:36;7.10;;;1.60;;
81150;SDS011;70629;-26.026;27.976;2023-11-21T00:39:18;3.47;;;1.00;;
81150;SDS011;70629;-26.026;27.976;2023-11-21T00:39:58;3.53;;;1.20;;
81150;SDS011;70629;-26.026;27.976;2023-11-21T00:40:39;5.97;;;1.70;;
81150;SDS011;70629;-26.026;27.976;2023-11-21T00:41:20;6.78;;;1.88;;
81150;SDS011;70629;-26.026;27.976;2023-11-21T00:41:59;6.25;;;1.85;;
81150;SDS011;70629;-26.026;27.976;2023-11-21T00:42:39;9.80;;;2.10;;
81150;SDS011;70629;-26.026;27.976;2023-11-21T00:43:19;4.72;;;1.73;;
81150;SDS011;70629;-26.026;27.976;2023-11-21T00:44:00;5.05;;;1.60;;
81150;SDS011;70629;-26.026;27.976;2023-11-21T00:44:39;8.77;;;1.70;;
81150;SDS011;70629;-26.026;27.976;2023-11-21T00:45:19;5.10;;;1.60;;
81150;SDS011;70629;-26.026;27.976;2023-11-21T00:45:59;6.07;;;1.92;;
81150;SDS011;70629;-26.026;27.976;2023-11-21T00:46:39;7.68;;;1.52;;
81150;SDS011;70629;-26.026;27.976;2023-11-21T00:47:19;3.97;;;1.45;;
81150;SDS011;70629;-26.026;27.976;2023-11-21T00:47:59;4.57;;;1.30;;
81150;SDS011;70629;-26.026;27.976;2023-11-21T00:48:39;3.50;;;1.50;;
81150;SDS011;70629;-26.026;27.976;2023-11-21T00:49:19;4.63;;;1.50;;
81150;SDS011;70629;-26.026;27.976;2023-11-21T00:49:59;6.40;;;1.60;;
81150;SDS011;70629;-26.026;27.976;2023-11-21T00:50:40;4.82;;;1.73;;
81150;SDS011;70629;-26.026;27.976;2023-11-21T00:51:20;5.60;;;1.75;;
81150;SDS011;70629;-26.026;27.976;2023-11-21T00:52:01;3.67;;;1.50;;
81150;SDS011;70629;-26.026;27.976;2023-11-21T00:52:41;4.45;;;1.55;;
81150;SDS011;70629;-26.026;27.976;2023-11-21T00:53:23;10.95;;;2.92;;
81150;SDS011;70629;-26.026;27.976;2023-11-21T00:54:02;3.28;;;1.48;;
81150;SDS011;70629;-26.026;27.976;2023-11-21T00:54:43;4.70;;;1.60;;
81150;SDS011;70629;-26.026;27.976;2023-11-21T00:55:23;3.88;;;1.40;;
81150;SDS011;70629;-26.026;27.976;2023-11-21T00:56:05;5.82;;;1.90;;
81150;SDS011;70629;-26.026;27.976;2023-11-21T00:56:47;7.13;;;1.70;;
81150;SDS011;70629;-26.026;27.976;2023-11-21T00:57:27;4.43;;;1.80;;
81150;SDS011;70629;-26.026;27.976;2023-11-21T00:58:07;5.20;;;1.75;;
81150;SDS011;70629;-26.026;27.976;2023-11-21T00:58:47;4.43;;;1.80;;
81150;SDS011;70629;-26.026;27.976;2023-11-21T00:59:30;5.00;;;2.03;;
81150;SDS011;70629;-26.026;27.976;2023-11-21T01:00:11;7.13;;;1.90;;
81150;SDS011;70629;-26.026;27.976;2023-11-21T01:01:35;6.82;;;3.15;;
81150;SDS011;70629;-26.026;27.976;2023-11-21T01:02:18;10.57;;;2.22;;
81150;SDS011;70629;-26.026;27.976;2023-11-21T01:02:58;5.05;;;1.70;;
81150;SDS011;70629;-26.026;27.976;2023-11-21T01:03:39;4.97;;;1.60;;
81150;SDS011;70629;-26.026;27.976;2023-11-21T01:04:19;4.32;;;1.35;;
81150;SDS011;70629;-26.026;27.976;2023-11-21T01:04:59;4.90;;;1.77;;
81150;SDS011;70629;-26.026;27.976;2023-11-21T01:05:39;5.88;;;1.45;;
81150;SDS011;70629;-26.026;27.976;2023-11-21T01:06:19;4.70;;;1.80;;
81150;SDS011;70629;-26.026;27.976;2023-11-21T01:06:59;3.85;;;1.30;;
81150;SDS011;70629;-26.026;27.976;2023-11-21T01:07:40;4.38;;;1.60;;
81150;SDS011;70629;-26.026;27.976;2023-11-21T01:08:21;5.93;;;1.60;;
81150;SDS011;70629;-26.026;27.976;2023-11-21T01:09:02;5.47;;;1.90;;
81150;SDS011;70629;-26.026;27.976;2023-11-21T01:09:47;4.40;;;1.60;;
81150;SDS011;70629;-26.026;27.976;2023-11-21T01:10:27;3.72;;;1.38;;
81150;SDS011;70629;-26.026;27.976;2023-11-21T01:11:07;5.53;;;1.40;;
81150;SDS011;70629;-26.026;27.976;2023-11-21T01:11:47;3.97;;;1.38;;
81150;SDS011;70629;-26.026;27.976;2023-11-21T01:12:27;6.60;;;2.28;;
81150;SDS011;70629;-26.026;27.976;2023-11-21T01:13:07;5.38;;;1.60;;
81150;SDS011;70629;-26.026;27.976;2023-11-21T01:13:47;4.28;;;1.73;;
81150;SDS011;70629;-26.026;27.976;2023-11-21T01:14:27;2.85;;;1.50;;
81150;SDS011;70629;-26.026;27.976;2023-11-21T01:15:07;3.85;;;1.80;;
81150;SDS011;70629;-26.026;27.976;2023-11-21T01:15:47;5.38;;;1.88;;
81150;SDS011;70629;-26.026;27.976;2023-11-21T01:16:27;3.63;;;2.00;;
81150;SDS011;70629;-26.026;27.976;2023-11-21T01:17:07;3.83;;;1.92;;
81150;SDS011;70629;-26.026;27.976;2023-11-21T01:17:47;3.25;;;1.45;;
81150;SDS011;70629;-26.026;27.976;2023-11-21T01:18:27;5.32;;;1.90;;
81150;SDS011;70629;-26.026;27.976;2023-11-21T01:19:08;5.65;;;2.15;;
81150;SDS011;70629;-26.026;27.976;2023-11-21T01:19:49;5.07;;;2.13;;
81150;SDS011;70629;-26.026;27.976;2023-11-21T01:20:29;3.60;;;1.63;;
81150;SDS011;70629;-26.026;27.976;2023-11-21T01:21:09;5.78;;;2.03;;
81150;SDS011;70629;-26.026;27.976;2023-11-21T01:21:49;4.72;;;2.03;;
81150;SDS011;70629;-26.026;27.976;2023-11-21T01:22:30;3.72;;;1.70;;
81150;SDS011;70629;-26.026;27.976;2023-11-21T01:23:10;3.10;;;1.50;;
81150;SDS011;70629;-26.026;27.976;2023-11-21T01:23:50;4.15;;;1.80;;
81150;SDS011;70629;-26.026;27.976;2023-11-21T01:24:30;6.47;;;1.98;;
81150;SDS011;70629;-26.026;27.976;2023-11-21T01:25:10;4.25;;;1.80;;
81150;SDS011;70629;-26.026;27.976;2023-11-21T01:25:50;5.55;;;1.85;;
81150;SDS011;70629;-26.026;27.976;2023-11-21T01:26:30;4.65;;;1.70;;
81150;SDS011;70629;-26.026;27.976;2023-11-21T01:27:12;3.85;;;2.05;;
81150;SDS011;70629;-26.026;27.976;2023-11-21T01:27:51;4.30;;;1.83;;
81150;SDS011;70629;-26.026;27.976;2023-11-21T01:28:31;4.85;;;1.80;;
81150;SDS011;70629;-26.026;27.976;2023-11-21T01:29:11;4.82;;;1.75;;
81150;SDS011;70629;-26.026;27.976;2023-11-21T01:29:51;8.88;;;2.00;;
81150;SDS011;70629;-26.026;27.976;2023-11-21T01:30:32;4.35;;;1.67;;
81150;SDS011;70629;-26.026;27.976;2023-11-21T01:31:12;6.65;;;2.22;;
81150;SDS011;70629;-26.026;27.976;2023-11-21T01:31:52;4.78;;;1.70;;
81150;SDS011;70629;-26.026;27.976;2023-11-21T01:32:32;4.93;;;1.90;;
81150;SDS011;70629;-26.026;27.976;2023-11-21T01:33:13;3.88;;;1.77;;
81150;SDS011;70629;-26.026;27.976;2023-11-21T01:33:55;3.45;;;1.63;;
81150;SDS011;70629;-26.026;27.976;2023-11-21T01:34:36;5.05;;;1.70;;
81150;SDS011;70629;-26.026;27.976;2023-11-21T01:35:16;3.83;;;1.50;;
81150;SDS011;70629;-26.026;27.976;2023-11-21T01:35:56;3.60;;;1.83;;
81150;SDS011;70629;-26.026;27.976;2023-11-21T01:36:36;3.28;;;1.65;;
81150;SDS011;70629;-26.026;27.976;2023-11-21T01:37:15;3.33;;;2.00;;
81150;SDS011;70629;-26.026;27.976;2023-11-21T01:37:56;4.43;;;1.63;;
81150;SDS011;70629;-26.026;27.976;2023-11-21T01:38:36;5.22;;;1.92;;
81150;SDS011;70629;-26.026;27.976;2023-11-21T01:39:16;3.88;;;1.58;;
81150;SDS011;70629;-26.026;27.976;2023-11-21T01:40:02;3.50;;;1.70;;
81150;SDS011;70629;-26.026;27.976;2023-11-21T01:40:47;3.35;;;1.70;;
81150;SDS011;70629;-26.026;27.976;2023-11-21T01:41:28;4.68;;;1.30;;
81150;SDS011;70629;-26.026;27.976;2023-11-21T01:42:09;4.18;;;2.00;;
81150;SDS011;70629;-26.026;27.976;2023-11-21T01:42:53;4.20;;;1.85;;
81150;SDS011;70629;-26.026;27.976;2023-11-21T01:43:33;4.13;;;1.55;;
81150;SDS011;70629;-26.026;27.976;2023-11-21T01:44:13;5.07;;;1.80;;
81150;SDS011;70629;-26.026;27.976;2023-11-21T01:44:52;4.95;;;1.80;;
81150;SDS011;70629;-26.026;27.976;2023-11-21T01:45:33;3.50;;;1.65;;
81150;SDS011;70629;-26.026;27.976;2023-11-21T01:46:13;6.32;;;2.45;;
81150;SDS011;70629;-26.026;27.976;2023-11-21T01:46:54;4.90;;;1.52;;
81150;SDS011;70629;-26.026;27.976;2023-11-21T01:47:36;3.97;;;1.63;;
81150;SDS011;70629;-26.026;27.976;2023-11-21T01:48:17;4.75;;;2.17;;
81150;SDS011;70629;-26.026;27.976;2023-11-21T01:48:58;4.25;;;1.90;;
81150;SDS011;70629;-26.026;27.976;2023-11-21T01:49:37;6.03;;;2.08;;
81150;SDS011;70629;-26.026;27.976;2023-11-21T01:50:18;3.80;;;2.03;;
81150;SDS011;70629;-26.026;27.976;2023-11-21T01:50:58;4.20;;;2.08;;
81150;SDS011;70629;-26.026;27.976;2023-11-21T01:51:40;4.55;;;2.22;;
81150;SDS011;70629;-26.026;27.976;2023-11-21T01:52:22;7.30;;;2.50;;
81150;SDS011;70629;-26.026;27.976;2023-11-21T01:53:05;5.93;;;2.30;;
81150;SDS011;70629;-26.026;27.976;2023-11-21T01:53:45;8.02;;;2.60;;
81150;SDS011;70629;-26.026;27.976;2023-11-21T01:54:26;9.93;;;2.60;;
81150;SDS011;70629;-26.026;27.976;2023-11-21T01:55:11;4.75;;;2.22;;
81150;SDS011;70629;-26.026;27.976;2023-11-21T01:56:06;6.03;;;2.20;;
81150;SDS011;70629;-26.026;27.976;2023-11-21T01:56:48;5.05;;;2.35;;
81150;SDS011;70629;-26.026;27.976;2023-11-21T01:57:29;4.57;;;2.30;;
81150;SDS011;70629;-26.026;27.976;2023-11-21T01:58:09;6.78;;;2.30;;
81150;SDS011;70629;-26.026;27.976;2023-11-21T01:58:51;5.78;;;2.65;;
81150;SDS011;70629;-26.026;27.976;2023-11-21T01:59:36;5.05;;;2.30;;
81150;SDS011;70629;-26.026;27.976;2023-11-21T02:00:17;5.63;;;3.45;;
81150;SDS011;70629;-26.026;27.976;2023-11-21T02:00:58;5.32;;;2.33;;
81150;SDS011;70629;-26.026;27.976;2023-11-21T02:01:39;5.45;;;2.30;;
81150;SDS011;70629;-26.026;27.976;2023-11-21T02:02:20;6.30;;;2.70;;
81150;SDS011;70629;-26.026;27.976;2023-11-21T02:03:00;4.55;;;2.58;;
81150;SDS011;70629;-26.026;27.976;2023-11-21T02:03:41;5.80;;;2.92;;
81150;SDS011;70629;-26.026;27.976;2023-11-21T02:04:21;5.07;;;3.15;;
81150;SDS011;70629;-26.026;27.976;2023-11-21T02:05:01;6.63;;;2.75;;
81150;SDS011;70629;-26.026;27.976;2023-11-21T02:05:41;5.93;;;3.20;;
81150;SDS011;70629;-26.026;27.976;2023-11-21T02:06:21;6.90;;;3.00;;
81150;SDS011;70629;-26.026;27.976;2023-11-21T02:07:03;6.00;;;2.85;;
81150;SDS011;70629;-26.026;27.976;2023-11-21T02:07:46;8.88;;;3.63;;
81150;SDS011;70629;-26.026;27.976;2023-11-21T02:08:31;4.80;;;2.70;;
81150;SDS011;70629;-26.026;27.976;2023-11-21T02:09:11;6.47;;;2.70;;
81150;SDS011;70629;-26.026;27.976;2023-11-21T02:09:54;4.22;;;2.45;;
81150;SDS011;70629;-26.026;27.976;2023-11-21T02:10:34;6.60;;;2.97;;
81150;SDS011;70629;-26.026;27.976;2023-11-21T02:11:16;5.80;;;2.88;;
81150;SDS011;70629;-26.026;27.976;2023-11-21T02:11:58;6.32;;;3.10;;
81150;SDS011;70629;-26.026;27.976;2023-11-21T02:12:37;5.03;;;2.88;;
81150;SDS011;70629;-26.026;27.976;2023-11-21T02:13:17;6.07;;;2.67;;
81150;SDS011;70629;-26.026;27.976;2023-11-21T02:13:59;5.90;;;2.67;;
81150;SDS011;70629;-26.026;27.976;2023-11-21T02:14:39;5.53;;;2.63;;
81150;SDS011;70629;-26.026;27.976;2023-11-21T02:15:19;6.20;;;2.47;;
81150;SDS011;70629;-26.026;27.976;2023-11-21T02:15:59;6.22;;;3.05;;
81150;SDS011;70629;-26.026;27.976;2023-11-21T02:16:39;5.70;;;2.80;;
81150;SDS011;70629;-26.026;27.976;2023-11-21T02:17:25;6.47;;;2.80;;
81150;SDS011;70629;-26.026;27.976;2023-11-21T02:18:06;7.25;;;2.92;;
81150;SDS011;70629;-26.026;27.976;2023-11-21T02:18:48;6.70;;;2.72;;
81150;SDS011;70629;-26.026;27.976;2023-11-21T02:19:31;6.07;;;2.53;;
81150;SDS011;70629;-26.026;27.976;2023-11-21T02:20:13;5.18;;;2.53;;
81150;SDS011;70629;-26.026;27.976;2023-11-21T02:20:56;4.10;;;2.33;;
81150;SDS011;70629;-26.026;27.976;2023-11-21T02:21:36;4.55;;;2.63;;
81150;SDS011;70629;-26.026;27.976;2023-11-21T02:22:20;5.93;;;2.83;;
81150;SDS011;70629;-26.026;27.976;2023-11-21T02:23:01;5.53;;;2.63;;
81150;SDS011;70629;-26.026;27.976;2023-11-21T02:23:41;4.20;;;2.53;;
81150;SDS011;70629;-26.026;27.976;2023-11-21T02:24:23;7.32;;;3.30;;
81150;SDS011;70629;-26.026;27.976;2023-11-21T02:25:04;4.53;;;2.60;;
81150;SDS011;70629;-26.026;27.976;2023-11-21T02:25:44;5.28;;;2.63;;
81150;SDS011;70629;-26.026;27.976;2023-11-21T02:26:26;5.22;;;3.03;;
81150;SDS011;70629;-26.026;27.976;2023-11-21T02:27:06;6.35;;;2.97;;
81150;SDS011;70629;-26.026;27.976;2023-11-21T02:27:46;6.57;;;2.92;;
81150;SDS011;70629;-26.026;27.976;2023-11-21T02:28:27;7.13;;;2.80;;
81150;SDS011;70629;-26.026;27.976;2023-11-21T02:29:08;4.53;;;2.63;;
81150;SDS011;70629;-26.026;27.976;2023-11-21T02:29:50;7.20;;;2.95;;
81150;SDS011;70629;-26.026;27.976;2023-11-21T02:30:31;5.53;;;3.33;;
81150;SDS011;70629;-26.026;27.976;2023-11-21T02:31:11;7.25;;;2.85;;
81150;SDS011;70629;-26.026;27.976;2023-11-21T02:31:51;4.55;;;2.58;;
81150;SDS011;70629;-26.026;27.976;2023-11-21T02:32:33;7.30;;;2.70;;
81150;SDS011;70629;-26.026;27.976;2023-11-21T02:33:25;6.65;;;2.78;;
81150;SDS011;70629;-26.026;27.976;2023-11-21T02:34:05;8.27;;;3.03;;
81150;SDS011;70629;-26.026;27.976;2023-11-21T02:34:45;5.15;;;2.63;;
81150;SDS011;70629;-26.026;27.976;2023-11-21T02:35:25;6.45;;;2.80;;
81150;SDS011;70629;-26.026;27.976;2023-11-21T02:36:05;6.05;;;3.13;;
81150;SDS011;70629;-26.026;27.976;2023-11-21T02:36:45;6.03;;;3.17;;
81150;SDS011;70629;-26.026;27.976;2023-11-21T02:37:26;6.28;;;3.13;;
81150;SDS011;70629;-26.026;27.976;2023-11-21T02:38:06;6.40;;;3.50;;
81150;SDS011;70629;-26.026;27.976;2023-11-21T02:38:46;6.57;;;3.13;;
81150;SDS011;70629;-26.026;27.976;2023-11-21T02:39:26;6.20;;;3.45;;
81150;SDS011;70629;-26.026;27.976;2023-11-21T02:40:07;6.38;;;3.20;;
81150;SDS011;70629;-26.026;27.976;2023-11-21T02:40:48;5.28;;;3.00;;
81150;SDS011;70629;-26.026;27.976;2023-11-21T02:41:28;7.63;;;3.63;;
81150;SDS011;70629;-26.026;27.976;2023-11-21T02:42:09;5.82;;;3.45;;
81150;SDS011;70629;-26.026;27.976;2023-11-21T02:42:49;6.55;;;3.35;;
81150;SDS011;70629;-26.026;27.976;2023-11-21T02:43:30;6.40;;;3.75;;
81150;SDS011;70629;-26.026;27.976;2023-11-21T02:44:10;6.07;;;3.35;;
81150;SDS011;70629;-26.026;27.976;2023-11-21T02:44:50;5.05;;;3.42;;
81150;SDS011;70629;-26.026;27.976;2023-11-21T02:45:30;6.97;;;2.90;;
81150;SDS011;70629;-26.026;27.976;2023-11-21T02:46:10;7.00;;;3.58;;
81150;SDS011;70629;-26.026;27.976;2023-11-21T02:46:50;6.72;;;3.10;;
81150;SDS011;70629;-26.026;27.976;2023-11-21T02:47:30;5.60;;;3.35;;
81150;SDS011;70629;-26.026;27.976;2023-11-21T02:48:10;7.35;;;3.47;;
81150;SDS011;70629;-26.026;27.976;2023-11-21T02:48:50;6.97;;;3.72;;
81150;SDS011;70629;-26.026;27.976;2023-11-21T02:49:33;5.57;;;3.15;;
81150;SDS011;70629;-26.026;27.976;2023-11-21T02:50:14;6.32;;;3.53;;
81150;SDS011;70629;-26.026;27.976;2023-11-21T02:50:56;6.47;;;3.22;;
81150;SDS011;70629;-26.026;27.976;2023-11-21T02:51:36;8.95;;;3.58;;
81150;SDS011;70629;-26.026;27.976;2023-11-21T02:52:19;6.68;;;3.28;;
81150;SDS011;70629;-26.026;27.976;2023-11-21T02:52:59;5.45;;;3.13;;
81150;SDS011;70629;-26.026;27.976;2023-11-21T02:53:39;5.57;;;3.38;;
81150;SDS011;70629;-26.026;27.976;2023-11-21T02:54:19;6.40;;;3.40;;
81150;SDS011;70629;-26.026;27.976;2023-11-21T02:55:01;7.10;;;3.60;;
81150;SDS011;70629;-26.026;27.976;2023-11-21T02:55:42;6.72;;;3.40;;
81150;SDS011;70629;-26.026;27.976;2023-11-21T02:56:22;5.47;;;3.08;;
81150;SDS011;70629;-26.026;27.976;2023-11-21T02:57:02;5.60;;;3.42;;
81150;SDS011;70629;-26.026;27.976;2023-11-21T02:57:42;6.82;;;3.50;;
81150;SDS011;70629;-26.026;27.976;2023-11-21T02:58:22;5.20;;;3.75;;
81150;SDS011;70629;-26.026;27.976;2023-11-21T02:59:02;5.70;;;3.63;;
81150;SDS011;70629;-26.026;27.976;2023-11-21T02:59:42;7.47;;;3.88;;
81150;SDS011;70629;-26.026;27.976;2023-11-21T03:00:22;5.57;;;3.83;;
81150;SDS011;70629;-26.026;27.976;2023-11-21T03:01:05;6.47;;;3.95;;
81150;SDS011;70629;-26.026;27.976;2023-11-21T03:01:46;7.40;;;4.47;;
81150;SDS011;70629;-26.026;27.976;2023-11-21T03:02:26;6.05;;;3.95;;
81150;SDS011;70629;-26.026;27.976;2023-11-21T03:03:06;5.28;;;3.80;;
81150;SDS011;70629;-26.026;27.976;2023-11-21T03:03:47;6.65;;;3.92;;
81150;SDS011;70629;-26.026;27.976;2023-11-21T03:04:29;5.78;;;4.15;;
81150;SDS011;70629;-26.026;27.976;2023-11-21T03:05:11;4.82;;;3.47;;
81150;SDS011;70629;-26.026;27.976;2023-11-21T03:05:51;6.00;;;4.10;;
81150;SDS011;70629;-26.026;27.976;2023-11-21T03:06:31;4.97;;;3.83;;
81150;SDS011;70629;-26.026;27.976;2023-11-21T03:07:10;5.45;;;3.90;;
81150;SDS011;70629;-26.026;27.976;2023-11-21T03:07:50;7.13;;;4.28;;
81150;SDS011;70629;-26.026;27.976;2023-11-21T03:08:31;6.55;;;3.92;;
81150;SDS011;70629;-26.026;27.976;2023-11-21T03:09:11;5.07;;;3.55;;
81150;SDS011;70629;-26.026;27.976;2023-11-21T03:09:51;5.43;;;3.97;;
81150;SDS011;70629;-26.026;27.976;2023-11-21T03:10:31;5.50;;;4.20;;
81150;SDS011;70629;-26.026;27.976;2023-11-21T03:11:11;5.88;;;4.28;;
81150;SDS011;70629;-26.026;27.976;2023-11-21T03:11:51;5.53;;;4.28;;
81150;SDS011;70629;-26.026;27.976;2023-11-21T03:12:32;6.80;;;4.20;;
81150;SDS011;70629;-26.026;27.976;2023-11-21T03:13:12;5.03;;;3.92;;
81150;SDS011;70629;-26.026;27.976;2023-11-21T03:13:52;5.55;;;4.10;;
81150;SDS011;70629;-26.026;27.976;2023-11-21T03:14:32;4.82;;;3.80;;
81150;SDS011;70629;-26.026;27.976;2023-11-21T03:15:12;6.20;;;3.92;;
81150;SDS011;70629;-26.026;27.976;2023-11-21T03:15:53;5.13;;;4.10;;
81150;SDS011;70629;-26.026;27.976;2023-11-21T03:16:33;6.72;;;4.40;;
81150;SDS011;70629;-26.026;27.976;2023-11-21T03:17:13;8.23;;;4.20;;
81150;SDS011;70629;-26.026;27.976;2023-11-21T03:17:53;8.45;;;4.50;;
81150;SDS011;70629;-26.026;27.976;2023-11-21T03:18:34;4.97;;;3.63;;
81150;SDS011;70629;-26.026;27.976;2023-11-21T03:19:14;5.13;;;4.03;;
81150;SDS011;70629;-26.026;27.976;2023-11-21T03:19:54;6.00;;;4.25;;
81150;SDS011;70629;-26.026;27.976;2023-11-21T03:20:36;5.85;;;4.03;;
81150;SDS011;70629;-26.026;27.976;2023-11-21T03:21:16;6.43;;;4.03;;
81150;SDS011;70629;-26.026;27.976;2023-11-21T03:21:56;6.60;;;4.40;;
81150;SDS011;70629;-26.026;27.976;2023-11-21T03:22:36;6.00;;;3.85;;
81150;SDS011;70629;-26.026;27.976;2023-11-21T03:23:17;6.35;;;4.20;;
81150;SDS011;70629;-26.026;27.976;2023-11-21T03:23:57;6.45;;;4.03;;
81150;SDS011;70629;-26.026;27.976;2023-11-21T03:24:39;6.18;;;4.38;;
81150;SDS011;70629;-26.026;27.976;2023-11-21T03:25:18;6.30;;;3.83;;
81150;SDS011;70629;-26.026;27.976;2023-11-21T03:25:59;5.60;;;4.30;;
81150;SDS011;70629;-26.026;27.976;2023-11-21T03:26:40;5.80;;;4.20;;
81150;SDS011;70629;-26.026;27.976;2023-11-21T03:27:20;6.07;;;4.20;;
81150;SDS011;70629;-26.026;27.976;2023-11-21T03:27:59;5.50;;;4.22;;
81150;SDS011;70629;-26.026;27.976;2023-11-21T03:28:39;7.93;;;4.72;;
81150;SDS011;70629;-26.026;27.976;2023-11-21T03:29:19;6.82;;;4.10;;
81150;SDS011;70629;-26.026;27.976;2023-11-21T03:30:00;6.78;;;4.82;;
81150;SDS011;70629;-26.026;27.976;2023-11-21T03:30:40;5.78;;;4.20;;
81150;SDS011;70629;-26.026;27.976;2023-11-21T03:31:20;5.70;;;3.72;;
81150;SDS011;70629;-26.026;27.976;2023-11-21T03:32:00;5.90;;;4.18;;
81150;SDS011;70629;-26.026;27.976;2023-11-21T03:32:40;5.40;;;4.13;;
81150;SDS011;70629;-26.026;27.976;2023-11-21T03:33:20;5.35;;;3.95;;
81150;SDS011;70629;-26.026;27.976;2023-11-21T03:34:02;6.75;;;4.15;;
81150;SDS011;70629;-26.026;27.976;2023-11-21T03:34:55;6.53;;;3.72;;
81150;SDS011;70629;-26.026;27.976;2023-11-21T03:35:38;5.70;;;3.75;;
81150;SDS011;70629;-26.026;27.976;2023-11-21T03:36:20;5.88;;;3.78;;
81150;SDS011;70629;-26.026;27.976;2023-11-21T03:37:00;6.95;;;4.05;;
81150;SDS011;70629;-26.026;27.976;2023-11-21T03:37:40;7.57;;;4.55;;
81150;SDS011;70629;-26.026;27.976;2023-11-21T03:38:22;6.65;;;3.90;;
81150;SDS011;70629;-26.026;27.976;2023-11-21T03:39:02;5.68;;;3.90;;
81150;SDS011;70629;-26.026;27.976;2023-11-21T03:39:42;5.53;;;4.07;;
81150;SDS011;70629;-26.026;27.976;2023-11-21T03:40:22;6.57;;;4.80;;
81150;SDS011;70629;-26.026;27.976;2023-11-21T03:41:02;5.90;;;4.40;;
81150;SDS011;70629;-26.026;27.976;2023-11-21T03:41:42;7.22;;;4.20;;
81150;SDS011;70629;-26.026;27.976;2023-11-21T03:42:22;5.40;;;3.47;;
81150;SDS011;70629;-26.026;27.976;2023-11-21T03:43:02;5.22;;;3.65;;
81150;SDS011;70629;-26.026;27.976;2023-11-21T03:43:42;6.28;;;4.07;;
81150;SDS011;70629;-26.026;27.976;2023-11-21T03:44:24;6.55;;;3.80;;
81150;SDS011;70629;-26.026;27.976;2023-11-21T03:45:04;5.72;;;3.45;;
81150;SDS011;70629;-26.026;27.976;2023-11-21T03:45:47;5.63;;;3.60;;
81150;SDS011;70629;-26.026;27.976;2023-11-21T03:46:28;8.80;;;4.00;;
81150;SDS011;70629;-26.026;27.976;2023-11-21T03:47:07;5.05;;;3.70;;
81150;SDS011;70629;-26.026;27.976;2023-11-21T03:47:47;5.05;;;3.75;;
81150;SDS011;70629;-26.026;27.976;2023-11-21T03:48:27;5.22;;;3.00;;
81150;SDS011;70629;-26.026;27.976;2023-11-21T03:49:07;4.95;;;3.10;;
81150;SDS011;70629;-26.026;27.976;2023-11-21T03:49:47;6.68;;;3.40;;
81150;SDS011;70629;-26.026;27.976;2023-11-21T03:50:29;5.57;;;3.30;;
81150;SDS011;70629;-26.026;27.976;2023-11-21T03:51:10;7.10;;;3.45;;
81150;SDS011;70629;-26.026;27.976;2023-11-21T03:51:50;6.30;;;3.50;;
81150;SDS011;70629;-26.026;27.976;2023-11-21T03:52:30;4.50;;;3.10;;
81150;SDS011;70629;-26.026;27.976;2023-11-21T03:53:12;5.57;;;3.72;;
81150;SDS011;70629;-26.026;27.976;2023-11-21T03:53:52;4.93;;;2.85;;
81150;SDS011;70629;-26.026;27.976;2023-11-21T03:54:32;4.18;;;3.03;;
81150;SDS011;70629;-26.026;27.976;2023-11-21T03:55:13;4.68;;;3.13;;
81150;SDS011;70629;-26.026;27.976;2023-11-21T03:55:53;4.95;;;2.90;;
81150;SDS011;70629;-26.026;27.976;2023-11-21T03:56:33;6.43;;;2.95;;
81150;SDS011;70629;-26.026;27.976;2023-11-21T03:57:13;5.65;;;3.03;;
81150;SDS011;70629;-26.026;27.976;2023-11-21T03:57:53;4.80;;;3.33;;
81150;SDS011;70629;-26.026;27.976;2023-11-21T03:58:33;4.68;;;3.03;;